ITY64C EKCH-LIMC
Flight info
| Callsign | ITY64C |
|---|---|
| Flight time | N/A |
| Altitude | 36000 |
| Route | NEXEN T503 MICOS DCT BOMBI DCT GIGET DCT ABUKA DCT KRH DCT NATOR/N0457F370 DCT TRA DCT RIPUS DCT GERSA DCT SOSON DCT DEGAD DCT BASGO/N0466F290 Z424 AKASU/N0397F190 Z424 RIXUV |
| Aircraft | A320/M-SDE3FGHIRWY/LB1 |
Departure
| Time | 2026-05-05 19:10 |
|---|---|
| Airport | Copenhagen Kastrup Airport (EKCH) |
Arrival
| Time | N/A |
|---|---|
| Airport | Milan Malpensa International Airport (LIMC) |
| Time | Latitude | Longitude | Altitude | Speed | Heading |
|---|---|---|---|---|---|
| 2026-05-05 18:51 | 55.62361 | 12.65053 | 19 ft | 0 kts | 276° |
| 2026-05-05 18:56 | 55.62359 | 12.65089 | 17 ft | 4 kts | 275° |
| 2026-05-05 18:57 | 55.62357 | 12.65137 | 17 ft | 4 kts | 269° |
| 2026-05-05 18:57 | 55.62360 | 12.65182 | 21 ft | 4 kts | 244° |
| 2026-05-05 18:57 | 55.62372 | 12.65204 | 19 ft | 1 kts | 179° |
| 2026-05-05 19:01 | 55.62365 | 12.65205 | 17 ft | 4 kts | 179° |
| 2026-05-05 19:02 | 55.62339 | 12.65205 | 17 ft | 7 kts | 179° |
| 2026-05-05 19:02 | 55.62263 | 12.65200 | 17 ft | 14 kts | 180° |
| 2026-05-05 19:02 | 55.62161 | 12.65126 | 17 ft | 15 kts | 213° |
| 2026-05-05 19:02 | 55.62114 | 12.65073 | 18 ft | 0 kts | 213° |
| 2026-05-05 19:03 | 55.62111 | 12.65069 | 17 ft | 4 kts | 213° |
| 2026-05-05 19:03 | 55.62057 | 12.65006 | 18 ft | 14 kts | 213° |
| 2026-05-05 19:04 | 55.62002 | 12.64943 | 18 ft | 22 kts | 213° |
| 2026-05-05 19:04 | 55.61829 | 12.64745 | 17 ft | 29 kts | 213° |
| 2026-05-05 19:04 | 55.61652 | 12.64540 | 17 ft | 32 kts | 213° |
| 2026-05-05 19:04 | 55.61458 | 12.64317 | 17 ft | 30 kts | 213° |
| 2026-05-05 19:05 | 55.61297 | 12.64133 | 17 ft | 30 kts | 212° |
| 2026-05-05 19:05 | 55.61112 | 12.63923 | 17 ft | 27 kts | 213° |
| 2026-05-05 19:05 | 55.60944 | 12.63727 | 17 ft | 30 kts | 213° |
| 2026-05-05 19:05 | 55.60758 | 12.63512 | 17 ft | 32 kts | 213° |
| 2026-05-05 19:06 | 55.60618 | 12.63338 | 17 ft | 23 kts | 220° |
| 2026-05-05 19:06 | 55.60502 | 12.63216 | 17 ft | 16 kts | 173° |
| 2026-05-05 19:06 | 55.60465 | 12.63263 | 17 ft | 0 kts | 132° |
| 2026-05-05 19:07 | 55.60451 | 12.63290 | 17 ft | 11 kts | 131° |
| 2026-05-05 19:07 | 55.60401 | 12.63417 | 18 ft | 12 kts | 96° |
| 2026-05-05 19:07 | 55.60431 | 12.63492 | 17 ft | 0 kts | 40° |
| 2026-05-05 19:09 | 55.60437 | 12.63501 | 17 ft | 6 kts | 40° |
| 2026-05-05 19:10 | 55.60599 | 12.63747 | 17 ft | 66 kts | 40° |
| 2026-05-05 19:10 | 55.61115 | 12.64546 | 17 ft | 128 kts | 41° |
| 2026-05-05 19:10 | 55.61870 | 12.65719 | 178 ft | 158 kts | 40° |
| 2026-05-05 19:10 | 55.62676 | 12.66970 | 899 ft | 154 kts | 38° |
| 2026-05-05 19:11 | 55.63483 | 12.68231 | 1594 ft | 156 kts | 40° |
| 2026-05-05 19:11 | 55.64318 | 12.69535 | 2129 ft | 169 kts | 40° |
| 2026-05-05 19:11 | 55.65262 | 12.70997 | 2441 ft | 191 kts | 39° |
| 2026-05-05 19:11 | 55.66327 | 12.72605 | 2763 ft | 216 kts | 41° |
| 2026-05-05 19:12 | 55.67215 | 12.74953 | 3177 ft | 243 kts | 71° |
| 2026-05-05 19:12 | 55.67276 | 12.78026 | 3868 ft | 260 kts | 102° |
| 2026-05-05 19:12 | 55.66437 | 12.80896 | 4739 ft | 270 kts | 130° |
| 2026-05-05 19:12 | 55.64889 | 12.82798 | 5643 ft | 275 kts | 159° |
| 2026-05-05 19:13 | 55.63006 | 12.83458 | 6559 ft | 277 kts | 174° |
| 2026-05-05 19:13 | 55.61073 | 12.83802 | 7418 ft | 281 kts | 176° |
| 2026-05-05 19:13 | 55.59124 | 12.84177 | 8315 ft | 282 kts | 175° |
| 2026-05-05 19:13 | 55.57160 | 12.84580 | 9207 ft | 285 kts | 176° |
| 2026-05-05 19:14 | 55.55180 | 12.85024 | 10050 ft | 289 kts | 176° |
| 2026-05-05 19:14 | 55.53164 | 12.85506 | 10355 ft | 311 kts | 175° |
| 2026-05-05 19:14 | 55.50921 | 12.86042 | 10569 ft | 334 kts | 175° |
| 2026-05-05 19:14 | 55.48503 | 12.86561 | 10797 ft | 354 kts | 180° |
| 2026-05-05 19:15 | 55.46057 | 12.86057 | 11344 ft | 356 kts | 200° |
| 2026-05-05 19:15 | 55.43861 | 12.84119 | 12035 ft | 353 kts | 220° |
| 2026-05-05 19:15 | 55.42062 | 12.81272 | 12759 ft | 354 kts | 226° |
| 2026-05-05 19:15 | 55.40253 | 12.78234 | 13519 ft | 356 kts | 226° |
| 2026-05-05 19:16 | 55.38486 | 12.75245 | 14177 ft | 358 kts | 226° |
| 2026-05-05 19:16 | 55.36685 | 12.72193 | 14825 ft | 360 kts | 226° |
| 2026-05-05 19:16 | 55.34872 | 12.69127 | 15471 ft | 363 kts | 226° |
| 2026-05-05 19:16 | 55.33039 | 12.66044 | 16106 ft | 365 kts | 226° |
| 2026-05-05 19:17 | 55.31222 | 12.62999 | 16738 ft | 368 kts | 226° |
| 2026-05-05 19:17 | 55.29333 | 12.59845 | 17386 ft | 370 kts | 226° |
| 2026-05-05 19:17 | 55.27460 | 12.56724 | 18020 ft | 373 kts | 226° |
| 2026-05-05 19:17 | 55.25574 | 12.53584 | 18589 ft | 375 kts | 226° |
| 2026-05-05 19:18 | 55.23675 | 12.50425 | 18859 ft | 376 kts | 226° |
| 2026-05-05 19:18 | 55.21779 | 12.47274 | 18927 ft | 376 kts | 226° |
| 2026-05-05 19:18 | 55.19886 | 12.44126 | 18939 ft | 375 kts | 226° |
| 2026-05-05 19:18 | 55.17989 | 12.40972 | 18937 ft | 375 kts | 226° |
| 2026-05-05 19:19 | 55.16099 | 12.37842 | 18941 ft | 375 kts | 226° |
| 2026-05-05 19:19 | 55.14199 | 12.34705 | 18931 ft | 376 kts | 226° |
| 2026-05-05 19:19 | 55.12286 | 12.31550 | 19325 ft | 379 kts | 226° |
| 2026-05-05 19:19 | 55.10360 | 12.28378 | 19882 ft | 381 kts | 226° |
| 2026-05-05 19:20 | 55.08428 | 12.25196 | 20406 ft | 383 kts | 226° |
| 2026-05-05 19:20 | 55.06488 | 12.22000 | 20907 ft | 385 kts | 226° |
| 2026-05-05 19:20 | 55.04545 | 12.18806 | 21394 ft | 387 kts | 226° |
| 2026-05-05 19:20 | 55.02602 | 12.15619 | 21867 ft | 389 kts | 226° |
| 2026-05-05 19:21 | 55.00602 | 12.12341 | 22328 ft | 391 kts | 226° |
| 2026-05-05 19:21 | 54.98621 | 12.09097 | 22775 ft | 392 kts | 226° |
| 2026-05-05 19:21 | 54.96622 | 12.05830 | 23217 ft | 394 kts | 226° |
| 2026-05-05 19:21 | 54.94621 | 12.02565 | 23616 ft | 396 kts | 226° |
| 2026-05-05 19:22 | 54.92599 | 11.99274 | 23948 ft | 398 kts | 226° |
| 2026-05-05 19:22 | 54.90567 | 11.95978 | 24285 ft | 400 kts | 226° |
| 2026-05-05 19:22 | 54.88528 | 11.92673 | 24631 ft | 401 kts | 226° |
| 2026-05-05 19:22 | 54.86489 | 11.89372 | 24979 ft | 402 kts | 226° |
| 2026-05-05 19:23 | 54.84436 | 11.86053 | 25323 ft | 404 kts | 226° |
| 2026-05-05 19:23 | 54.82381 | 11.82737 | 25651 ft | 405 kts | 226° |
| 2026-05-05 19:23 | 54.80328 | 11.79436 | 25980 ft | 406 kts | 225° |
| 2026-05-05 19:23 | 54.78000 | 11.76609 | 26287 ft | 415 kts | 211° |
| 2026-05-05 19:24 | 54.75336 | 11.74620 | 26593 ft | 418 kts | 207° |
| 2026-05-05 19:24 | 54.72636 | 11.72707 | 26886 ft | 420 kts | 207° |
| 2026-05-05 19:24 | 54.69898 | 11.70797 | 27145 ft | 421 kts | 207° |
| 2026-05-05 19:24 | 54.67202 | 11.68930 | 27386 ft | 422 kts | 206° |
| 2026-05-05 19:25 | 54.64466 | 11.67029 | 27637 ft | 424 kts | 206° |
| 2026-05-05 19:25 | 54.61726 | 11.65122 | 27886 ft | 425 kts | 206° |
| 2026-05-05 19:25 | 54.58991 | 11.63217 | 28217 ft | 423 kts | 206° |
| 2026-05-05 19:25 | 54.56260 | 11.61316 | 28576 ft | 422 kts | 207° |
| 2026-05-05 19:26 | 54.53577 | 11.59446 | 28930 ft | 420 kts | 207° |
| 2026-05-05 19:26 | 54.50874 | 11.57561 | 29294 ft | 418 kts | 207° |
| 2026-05-05 19:26 | 54.48180 | 11.55684 | 29658 ft | 417 kts | 207° |
| 2026-05-05 19:26 | 54.45522 | 11.53839 | 29986 ft | 415 kts | 206° |
| 2026-05-05 19:27 | 54.42857 | 11.51989 | 30237 ft | 416 kts | 206° |
| 2026-05-05 19:27 | 54.40171 | 11.50124 | 30498 ft | 416 kts | 206° |
| 2026-05-05 19:27 | 54.37518 | 11.48285 | 30797 ft | 415 kts | 206° |
| 2026-05-05 19:27 | 54.34842 | 11.46434 | 31113 ft | 413 kts | 206° |
| 2026-05-05 19:28 | 54.32189 | 11.44607 | 31434 ft | 411 kts | 206° |
| 2026-05-05 19:28 | 54.29541 | 11.42790 | 31758 ft | 409 kts | 206° |
| 2026-05-05 19:28 | 54.26896 | 11.40980 | 32091 ft | 407 kts | 207° |
| 2026-05-05 19:28 | 54.24238 | 11.39160 | 32421 ft | 405 kts | 207° |
| 2026-05-05 19:29 | 54.21651 | 11.37391 | 32743 ft | 403 kts | 207° |
| 2026-05-05 19:29 | 54.19055 | 11.35618 | 33058 ft | 401 kts | 206° |
| 2026-05-05 19:29 | 54.16471 | 11.33852 | 33395 ft | 399 kts | 206° |
| 2026-05-05 19:29 | 54.13898 | 11.32092 | 33731 ft | 397 kts | 207° |
| 2026-05-05 19:30 | 54.11418 | 11.30398 | 34043 ft | 395 kts | 206° |
| 2026-05-05 19:30 | 54.08805 | 11.28615 | 34294 ft | 395 kts | 206° |
| 2026-05-05 19:30 | 54.06252 | 11.26874 | 34496 ft | 395 kts | 206° |
| 2026-05-05 19:30 | 54.03784 | 11.25195 | 34693 ft | 396 kts | 206° |
| 2026-05-05 19:31 | 54.01126 | 11.23395 | 34887 ft | 397 kts | 206° |
| 2026-05-05 19:31 | 53.98554 | 11.21660 | 35072 ft | 398 kts | 206° |
| 2026-05-05 19:31 | 53.96008 | 11.19946 | 35214 ft | 399 kts | 205° |
| 2026-05-05 19:31 | 53.93418 | 11.18200 | 35363 ft | 401 kts | 205° |
| 2026-05-05 19:32 | 53.90788 | 11.16429 | 35521 ft | 402 kts | 205° |
| 2026-05-05 19:32 | 53.88185 | 11.14679 | 35704 ft | 403 kts | 205° |
| 2026-05-05 19:32 | 53.85602 | 11.12941 | 35867 ft | 404 kts | 205° |
| 2026-05-05 19:32 | 53.82977 | 11.11173 | 35915 ft | 407 kts | 205° |
| 2026-05-05 19:33 | 53.77713 | 11.07637 | 35915 ft | 410 kts | 205° |
| 2026-05-05 19:33 | 53.72408 | 11.04090 | 35902 ft | 410 kts | 205° |
| 2026-05-05 19:34 | 53.67089 | 11.00546 | 35913 ft | 411 kts | 205° |
| 2026-05-05 19:35 | 53.59105 | 10.95243 | 35910 ft | 412 kts | 205° |
| 2026-05-05 19:35 | 53.53773 | 10.91717 | 35921 ft | 412 kts | 204° |
| 2026-05-05 19:36 | 53.48437 | 10.88203 | 35905 ft | 412 kts | 204° |
| 2026-05-05 19:36 | 53.43098 | 10.84689 | 35900 ft | 412 kts | 204° |
| 2026-05-05 19:37 | 53.38680 | 10.81786 | 35901 ft | 412 kts | 204° |
| 2026-05-05 19:37 | 53.33303 | 10.78261 | 35900 ft | 412 kts | 204° |
| 2026-05-05 19:38 | 53.27997 | 10.74787 | 35898 ft | 412 kts | 204° |
| 2026-05-05 19:38 | 53.22653 | 10.71309 | 35874 ft | 412 kts | 203° |
| 2026-05-05 19:39 | 53.17335 | 10.67861 | 35877 ft | 412 kts | 203° |
| 2026-05-05 19:39 | 53.11977 | 10.64390 | 35882 ft | 413 kts | 203° |
| 2026-05-05 19:40 | 53.06622 | 10.60929 | 35882 ft | 413 kts | 203° |
| 2026-05-05 19:40 | 53.01263 | 10.57469 | 35885 ft | 413 kts | 203° |
| 2026-05-05 19:41 | 52.95903 | 10.54019 | 35882 ft | 413 kts | 203° |
| 2026-05-05 19:41 | 52.90539 | 10.50577 | 35884 ft | 415 kts | 203° |
| 2026-05-05 19:42 | 52.85140 | 10.47127 | 35884 ft | 421 kts | 203° |
| 2026-05-05 19:42 | 52.79694 | 10.43654 | 35884 ft | 414 kts | 203° |
| 2026-05-05 19:43 | 52.74320 | 10.40232 | 35877 ft | 413 kts | 202° |
| 2026-05-05 19:43 | 52.68952 | 10.36830 | 35870 ft | 413 kts | 202° |
| 2026-05-05 19:44 | 52.63615 | 10.33462 | 35870 ft | 413 kts | 202° |
| 2026-05-05 19:44 | 52.58248 | 10.30071 | 35865 ft | 413 kts | 202° |
| 2026-05-05 19:45 | 52.52878 | 10.26677 | 35851 ft | 413 kts | 202° |
| 2026-05-05 19:45 | 52.47502 | 10.23301 | 35852 ft | 414 kts | 202° |
| 2026-05-05 19:46 | 52.42116 | 10.19943 | 35852 ft | 414 kts | 202° |
| 2026-05-05 19:46 | 52.36728 | 10.16571 | 35856 ft | 414 kts | 202° |
| 2026-05-05 19:47 | 52.31341 | 10.13209 | 35836 ft | 414 kts | 201° |
| 2026-05-05 19:47 | 52.25953 | 10.09869 | 35838 ft | 414 kts | 201° |
| 2026-05-05 19:48 | 52.20558 | 10.06526 | 35831 ft | 415 kts | 201° |
| 2026-05-05 19:48 | 52.15163 | 10.03190 | 35837 ft | 415 kts | 201° |
| 2026-05-05 19:49 | 52.09754 | 9.99858 | 35822 ft | 415 kts | 201° |
| 2026-05-05 19:49 | 52.04355 | 9.96543 | 35817 ft | 415 kts | 201° |
| 2026-05-05 19:50 | 51.98948 | 9.93227 | 35829 ft | 415 kts | 201° |
| 2026-05-05 19:50 | 51.93533 | 9.89909 | 35825 ft | 416 kts | 201° |
| 2026-05-05 19:51 | 51.88114 | 9.86597 | 35825 ft | 416 kts | 201° |
| 2026-05-05 19:51 | 51.82695 | 9.83304 | 35810 ft | 416 kts | 200° |
| 2026-05-05 19:52 | 51.77274 | 9.80014 | 35810 ft | 416 kts | 200° |
| 2026-05-05 19:52 | 51.71842 | 9.76721 | 35803 ft | 417 kts | 200° |
| 2026-05-05 19:53 | 51.66405 | 9.73442 | 35811 ft | 417 kts | 200° |
| 2026-05-05 19:53 | 51.60964 | 9.70173 | 35805 ft | 418 kts | 200° |
| 2026-05-05 19:54 | 51.55514 | 9.66895 | 35801 ft | 418 kts | 200° |
| 2026-05-05 19:54 | 51.50050 | 9.63623 | 35822 ft | 419 kts | 199° |
| 2026-05-05 19:55 | 51.44585 | 9.60356 | 35817 ft | 420 kts | 199° |
| 2026-05-05 19:55 | 51.39109 | 9.57084 | 35809 ft | 420 kts | 199° |
| 2026-05-05 19:56 | 51.33621 | 9.53824 | 35804 ft | 421 kts | 199° |
| 2026-05-05 19:56 | 51.28132 | 9.50578 | 35791 ft | 421 kts | 199° |
| 2026-05-05 19:57 | 51.22657 | 9.47347 | 35804 ft | 421 kts | 199° |
| 2026-05-05 19:57 | 51.17154 | 9.44099 | 35790 ft | 421 kts | 199° |
| 2026-05-05 19:58 | 51.11646 | 9.40857 | 35783 ft | 422 kts | 199° |
| 2026-05-05 19:58 | 51.06124 | 9.37612 | 35784 ft | 423 kts | 199° |
| 2026-05-05 19:59 | 51.00600 | 9.34368 | 35797 ft | 423 kts | 199° |
| 2026-05-05 19:59 | 50.95116 | 9.31149 | 35798 ft | 423 kts | 198° |
| 2026-05-05 20:00 | 50.89597 | 9.27926 | 35792 ft | 424 kts | 198° |
| 2026-05-05 20:00 | 50.84052 | 9.24719 | 35794 ft | 424 kts | 198° |
| 2026-05-05 20:01 | 50.78522 | 9.21516 | 35798 ft | 425 kts | 198° |
| 2026-05-05 20:01 | 50.72966 | 9.18298 | 35807 ft | 425 kts | 198° |
| 2026-05-05 20:02 | 50.67411 | 9.15092 | 35798 ft | 425 kts | 198° |
| 2026-05-05 20:02 | 50.61879 | 9.11920 | 35805 ft | 425 kts | 198° |
| 2026-05-05 20:03 | 50.56416 | 9.08788 | 35815 ft | 425 kts | 198° |
| 2026-05-05 20:03 | 50.50892 | 9.05618 | 35802 ft | 425 kts | 198° |
| 2026-05-05 20:04 | 50.45319 | 9.02446 | 35792 ft | 426 kts | 198° |
| 2026-05-05 20:04 | 50.39737 | 8.99272 | 35795 ft | 427 kts | 198° |
| 2026-05-05 20:05 | 50.34156 | 8.96089 | 35801 ft | 427 kts | 198° |
| 2026-05-05 20:05 | 50.28557 | 8.92912 | 35803 ft | 428 kts | 198° |
| 2026-05-05 20:06 | 50.22948 | 8.89745 | 35800 ft | 429 kts | 198° |
| 2026-05-05 20:06 | 50.17330 | 8.86579 | 35807 ft | 429 kts | 198° |
| 2026-05-05 20:07 | 50.11706 | 8.83413 | 35816 ft | 430 kts | 198° |
| 2026-05-05 20:07 | 50.06057 | 8.80352 | 35820 ft | 430 kts | 193° |
| 2026-05-05 20:08 | 50.00172 | 8.78871 | 35817 ft | 429 kts | 186° |
| 2026-05-05 20:08 | 49.94252 | 8.77649 | 35820 ft | 430 kts | 187° |
| 2026-05-05 20:09 | 49.88328 | 8.76421 | 35813 ft | 431 kts | 187° |
| 2026-05-05 20:09 | 49.82429 | 8.75191 | 35818 ft | 431 kts | 187° |
| 2026-05-05 20:10 | 49.76470 | 8.73966 | 35825 ft | 431 kts | 187° |
| 2026-05-05 20:10 | 49.70490 | 8.72744 | 35831 ft | 432 kts | 187° |
| 2026-05-05 20:11 | 49.64537 | 8.71534 | 35836 ft | 432 kts | 187° |
| 2026-05-05 20:11 | 49.58580 | 8.70341 | 35841 ft | 432 kts | 187° |
| 2026-05-05 20:12 | 49.52619 | 8.69139 | 35844 ft | 432 kts | 187° |
| 2026-05-05 20:12 | 49.46669 | 8.67936 | 35845 ft | 431 kts | 187° |
| 2026-05-05 20:13 | 49.40721 | 8.66738 | 35847 ft | 431 kts | 187° |
| 2026-05-05 20:13 | 49.35728 | 8.65732 | 35847 ft | 431 kts | 187° |
| 2026-05-05 20:14 | 49.29778 | 8.64525 | 35845 ft | 431 kts | 187° |
| 2026-05-05 20:14 | 49.23934 | 8.63342 | 35843 ft | 431 kts | 187° |
| 2026-05-05 20:15 | 49.17881 | 8.62128 | 35833 ft | 431 kts | 188° |
| 2026-05-05 20:15 | 49.11977 | 8.60946 | 35836 ft | 431 kts | 188° |
| 2026-05-05 20:16 | 49.06024 | 8.59762 | 35839 ft | 431 kts | 188° |
| 2026-05-05 20:16 | 49.00106 | 8.58587 | 35838 ft | 431 kts | 188° |
| 2026-05-05 20:17 | 48.94195 | 8.57033 | 35847 ft | 431 kts | 192° |
| 2026-05-05 20:17 | 48.88347 | 8.55008 | 35848 ft | 431 kts | 193° |
| 2026-05-05 20:18 | 48.82531 | 8.52977 | 35858 ft | 431 kts | 193° |
| 2026-05-05 20:18 | 48.76658 | 8.51056 | 35863 ft | 431 kts | 192° |
| 2026-05-05 20:19 | 48.70783 | 8.49195 | 35862 ft | 431 kts | 192° |
| 2026-05-05 20:19 | 48.64905 | 8.47325 | 35859 ft | 432 kts | 193° |
| 2026-05-05 20:20 | 48.58990 | 8.45434 | 35869 ft | 432 kts | 193° |
| 2026-05-05 20:20 | 48.53104 | 8.43555 | 35869 ft | 432 kts | 193° |
| 2026-05-05 20:21 | 48.47230 | 8.41686 | 35872 ft | 432 kts | 192° |
| 2026-05-05 20:21 | 48.41348 | 8.39818 | 35879 ft | 432 kts | 192° |
| 2026-05-05 20:22 | 48.35465 | 8.37953 | 35879 ft | 432 kts | 192° |
| 2026-05-05 20:22 | 48.29580 | 8.36098 | 35890 ft | 432 kts | 192° |
| 2026-05-05 20:23 | 48.23700 | 8.34244 | 35886 ft | 432 kts | 193° |
| 2026-05-05 20:23 | 48.17789 | 8.32649 | 35894 ft | 433 kts | 184° |
| 2026-05-05 20:24 | 48.11781 | 8.33385 | 35894 ft | 435 kts | 173° |
| 2026-05-05 20:24 | 48.06753 | 8.34615 | 35895 ft | 435 kts | 173° |
| 2026-05-05 20:25 | 48.00773 | 8.36052 | 35893 ft | 435 kts | 173° |
| 2026-05-05 20:25 | 47.94793 | 8.37487 | 35899 ft | 435 kts | 173° |
| 2026-05-05 20:26 | 47.88810 | 8.38927 | 35906 ft | 435 kts | 173° |
| 2026-05-05 20:26 | 47.82845 | 8.40368 | 35925 ft | 435 kts | 173° |
| 2026-05-05 20:27 | 47.76856 | 8.41817 | 35923 ft | 435 kts | 173° |
| 2026-05-05 20:27 | 47.70990 | 8.43220 | 35900 ft | 435 kts | 174° |
| 2026-05-05 20:28 | 47.65289 | 8.44420 | 35919 ft | 432 kts | 176° |
| 2026-05-05 20:28 | 47.59321 | 8.45251 | 35933 ft | 431 kts | 178° |
| 2026-05-05 20:29 | 47.53333 | 8.46003 | 35937 ft | 430 kts | 178° |
| 2026-05-05 20:29 | 47.47376 | 8.46839 | 35933 ft | 430 kts | 178° |
| 2026-05-05 20:30 | 47.41431 | 8.47724 | 35936 ft | 429 kts | 178° |
| 2026-05-05 20:30 | 47.35479 | 8.48616 | 35936 ft | 429 kts | 178° |
| 2026-05-05 20:31 | 47.29566 | 8.49484 | 35936 ft | 429 kts | 178° |
| 2026-05-05 20:31 | 47.23636 | 8.50349 | 35928 ft | 428 kts | 178° |
| 2026-05-05 20:32 | 47.17698 | 8.51207 | 35924 ft | 428 kts | 178° |
| 2026-05-05 20:32 | 47.11756 | 8.52065 | 35926 ft | 428 kts | 178° |
| 2026-05-05 20:33 | 47.05819 | 8.52926 | 35919 ft | 428 kts | 178° |
| 2026-05-05 20:33 | 46.99886 | 8.53793 | 35927 ft | 428 kts | 178° |
| 2026-05-05 20:34 | 46.94058 | 8.54635 | 35928 ft | 417 kts | 179° |
| 2026-05-05 20:34 | 46.91310 | 8.55038 | 35930 ft | 401 kts | 179° |
| 2026-05-05 20:34 | 46.88485 | 8.55453 | 35936 ft | 384 kts | 179° |
| 2026-05-05 20:34 | 46.85890 | 8.55831 | 35927 ft | 369 kts | 179° |
| 2026-05-05 20:35 | 46.83367 | 8.56194 | 35939 ft | 361 kts | 180° |
| 2026-05-05 20:35 | 46.78438 | 8.56886 | 35950 ft | 357 kts | 180° |
| 2026-05-05 20:36 | 46.73477 | 8.57582 | 35955 ft | 355 kts | 180° |
| 2026-05-05 20:36 | 46.68558 | 8.58283 | 35963 ft | 355 kts | 180° |
| 2026-05-05 20:37 | 46.63647 | 8.58984 | 35958 ft | 355 kts | 181° |
| 2026-05-05 20:37 | 46.58723 | 8.59686 | 35965 ft | 356 kts | 181° |
| 2026-05-05 20:38 | 46.53817 | 8.60382 | 35964 ft | 357 kts | 181° |
| 2026-05-05 20:38 | 46.48896 | 8.61060 | 35962 ft | 355 kts | 184° |
| 2026-05-05 20:38 | 46.46446 | 8.61020 | 35825 ft | 350 kts | 191° |
| 2026-05-05 20:39 | 46.44053 | 8.60505 | 35339 ft | 345 kts | 198° |
| 2026-05-05 20:39 | 46.41765 | 8.59525 | 34930 ft | 340 kts | 205° |
| 2026-05-05 20:39 | 46.39650 | 8.58179 | 34444 ft | 334 kts | 211° |
| 2026-05-05 20:39 | 46.37655 | 8.56481 | 33995 ft | 332 kts | 215° |
| 2026-05-05 20:40 | 46.35711 | 8.54730 | 33468 ft | 331 kts | 215° |
| 2026-05-05 20:40 | 46.33748 | 8.52971 | 32882 ft | 332 kts | 214° |
| 2026-05-05 20:40 | 46.31773 | 8.51233 | 32376 ft | 332 kts | 211° |
| 2026-05-05 20:40 | 46.29711 | 8.49820 | 32234 ft | 323 kts | 205° |
| 2026-05-05 20:41 | 46.27594 | 8.48809 | 32100 ft | 316 kts | 199° |
| 2026-05-05 20:41 | 46.25451 | 8.48188 | 31814 ft | 313 kts | 193° |
| 2026-05-05 20:41 | 46.23276 | 8.47941 | 31382 ft | 316 kts | 187° |
| 2026-05-05 20:41 | 46.21055 | 8.48092 | 30897 ft | 321 kts | 181° |
| 2026-05-05 20:42 | 46.18834 | 8.48415 | 30304 ft | 321 kts | 181° |
| 2026-05-05 20:42 | 46.16634 | 8.48740 | 30110 ft | 313 kts | 180° |
| 2026-05-05 20:42 | 46.14475 | 8.49059 | 29724 ft | 310 kts | 180° |
| 2026-05-05 20:42 | 46.12333 | 8.49418 | 29227 ft | 312 kts | 177° |
| 2026-05-05 20:43 | 46.10201 | 8.50079 | 28642 ft | 316 kts | 171° |
| 2026-05-05 20:43 | 46.08096 | 8.51097 | 28103 ft | 320 kts | 166° |
| 2026-05-05 20:43 | 46.06011 | 8.52233 | 27978 ft | 321 kts | 166° |
| 2026-05-05 20:43 | 46.03918 | 8.53363 | 27996 ft | 322 kts | 166° |
| 2026-05-05 20:44 | 46.01810 | 8.54494 | 28001 ft | 323 kts | 166° |
| 2026-05-05 20:44 | 45.97605 | 8.56748 | 27681 ft | 321 kts | 166° |
| 2026-05-05 20:44 | 45.95505 | 8.57873 | 27173 ft | 322 kts | 166° |
| 2026-05-05 20:45 | 45.91434 | 8.59968 | 26996 ft | 296 kts | 173° |
| 2026-05-05 20:45 | 45.89433 | 8.60412 | 26995 ft | 287 kts | 183° |
| 2026-05-05 20:45 | 45.87491 | 8.60311 | 27001 ft | 281 kts | 192° |
| 2026-05-05 20:46 | 45.85552 | 8.59780 | 26997 ft | 279 kts | 195° |
| 2026-05-05 20:46 | 45.83675 | 8.59230 | 27000 ft | 278 kts | 195° |
| 2026-05-05 20:46 | 45.81786 | 8.58680 | 26962 ft | 276 kts | 195° |
| 2026-05-05 20:46 | 45.79900 | 8.58133 | 26531 ft | 276 kts | 195° |
| 2026-05-05 20:47 | 45.78014 | 8.57589 | 26030 ft | 277 kts | 195° |
| 2026-05-05 20:47 | 45.76114 | 8.57042 | 25550 ft | 279 kts | 194° |
| 2026-05-05 20:47 | 45.74842 | 8.56780 | 25244 ft | 282 kts | 187° |
| 2026-05-05 20:47 | 45.72873 | 8.56886 | 25011 ft | 287 kts | 177° |
| 2026-05-05 20:48 | 45.70907 | 8.57281 | 24995 ft | 281 kts | 178° |
| 2026-05-05 20:48 | 45.68991 | 8.57650 | 24999 ft | 274 kts | 178° |
| 2026-05-05 20:48 | 45.67107 | 8.58000 | 25002 ft | 273 kts | 178° |
| 2026-05-05 20:48 | 45.65226 | 8.58350 | 25002 ft | 272 kts | 178° |
| 2026-05-05 20:49 | 45.63345 | 8.58701 | 24996 ft | 271 kts | 179° |
| 2026-05-05 20:49 | 45.61483 | 8.59050 | 24773 ft | 270 kts | 179° |
| 2026-05-05 20:49 | 45.59630 | 8.59401 | 24349 ft | 271 kts | 178° |
| 2026-05-05 20:49 | 45.57766 | 8.59755 | 23922 ft | 273 kts | 178° |
| 2026-05-05 20:50 | 45.55877 | 8.60081 | 23503 ft | 272 kts | 183° |
| 2026-05-05 20:50 | 45.54078 | 8.59658 | 22998 ft | 264 kts | 206° |
| 2026-05-05 20:50 | 45.52570 | 8.58136 | 22492 ft | 266 kts | 228° |
| 2026-05-05 20:50 | 45.51691 | 8.55843 | 21993 ft | 274 kts | 252° |
| 2026-05-05 20:51 | 45.51634 | 8.53051 | 21492 ft | 289 kts | 278° |
| 2026-05-05 20:51 | 45.52559 | 8.50446 | 21012 ft | 307 kts | 307° |
| 2026-05-05 20:51 | 45.54256 | 8.48481 | 20519 ft | 318 kts | 318° |
| 2026-05-05 20:51 | 45.56066 | 8.46664 | 20218 ft | 315 kts | 319° |
| 2026-05-05 20:52 | 45.57817 | 8.44939 | 20091 ft | 306 kts | 319° |
| 2026-05-05 20:52 | 45.59560 | 8.43278 | 19953 ft | 300 kts | 326° |
| 2026-05-05 20:52 | 45.61571 | 8.42449 | 19722 ft | 307 kts | 356° |
| 2026-05-05 20:52 | 45.63674 | 8.43133 | 19370 ft | 312 kts | 30° |
| 2026-05-05 20:53 | 45.65231 | 8.45171 | 18991 ft | 309 kts | 62° |
| 2026-05-05 20:53 | 45.65903 | 8.48007 | 18609 ft | 299 kts | 93° |
| 2026-05-05 20:53 | 45.65584 | 8.50861 | 18216 ft | 287 kts | 121° |
| 2026-05-05 20:53 | 45.64455 | 8.53097 | 17802 ft | 272 kts | 147° |
| 2026-05-05 20:54 | 45.62969 | 8.54693 | 17568 ft | 265 kts | 150° |
| 2026-05-05 20:54 | 45.61455 | 8.56229 | 17234 ft | 264 kts | 151° |
| 2026-05-05 20:54 | 45.59942 | 8.57738 | 16875 ft | 265 kts | 150° |
| 2026-05-05 20:54 | 45.58439 | 8.59233 | 16538 ft | 266 kts | 150° |
| 2026-05-05 20:55 | 45.56868 | 8.60496 | 16180 ft | 259 kts | 168° |
| 2026-05-05 20:55 | 45.55118 | 8.60753 | 15823 ft | 252 kts | 192° |
| 2026-05-05 20:55 | 45.53503 | 8.59935 | 15590 ft | 243 kts | 214° |
| 2026-05-05 20:55 | 45.52295 | 8.58327 | 15366 ft | 239 kts | 235° |
| 2026-05-05 20:56 | 45.51634 | 8.56156 | 15031 ft | 242 kts | 257° |
| 2026-05-05 20:56 | 45.51650 | 8.53743 | 14712 ft | 249 kts | 281° |
| 2026-05-05 20:56 | 45.52394 | 8.51490 | 14391 ft | 257 kts | 305° |
| 2026-05-05 20:56 | 45.53759 | 8.49738 | 14071 ft | 263 kts | 319° |
| 2026-05-05 20:57 | 45.55188 | 8.48268 | 13993 ft | 259 kts | 321° |
| 2026-05-05 20:57 | 45.56657 | 8.46813 | 14002 ft | 255 kts | 321° |
| 2026-05-05 20:57 | 45.58113 | 8.45374 | 14005 ft | 255 kts | 321° |
| 2026-05-05 20:57 | 45.59575 | 8.43948 | 14002 ft | 255 kts | 326° |
| 2026-05-05 20:58 | 45.61272 | 8.43145 | 14003 ft | 262 kts | 353° |
| 2026-05-05 20:58 | 45.63081 | 8.43485 | 14003 ft | 267 kts | 21° |
| 2026-05-05 20:58 | 45.64613 | 8.44965 | 13998 ft | 269 kts | 50° |
| 2026-05-05 20:58 | 45.65519 | 8.47268 | 14008 ft | 267 kts | 78° |
| 2026-05-05 20:59 | 45.65621 | 8.49872 | 14010 ft | 262 kts | 105° |
| 2026-05-05 20:59 | 45.64948 | 8.52227 | 14001 ft | 254 kts | 131° |
| 2026-05-05 20:59 | 45.63704 | 8.53954 | 14001 ft | 249 kts | 147° |
| 2026-05-05 20:59 | 45.62308 | 8.55421 | 14004 ft | 249 kts | 149° |
| 2026-05-05 21:00 | 45.60886 | 8.56841 | 13992 ft | 249 kts | 149° |
| 2026-05-05 21:00 | 45.59461 | 8.58249 | 14005 ft | 249 kts | 149° |
| 2026-05-05 21:00 | 45.58052 | 8.59644 | 14007 ft | 249 kts | 150° |
| 2026-05-05 21:00 | 45.56497 | 8.60601 | 13996 ft | 241 kts | 176° |
| 2026-05-05 21:01 | 45.54883 | 8.60471 | 14007 ft | 235 kts | 200° |
| 2026-05-05 21:01 | 45.53481 | 8.59343 | 14015 ft | 232 kts | 225° |
| 2026-05-05 21:01 | 45.52568 | 8.57462 | 14005 ft | 233 kts | 249° |
| 2026-05-05 21:01 | 45.52329 | 8.55169 | 14001 ft | 237 kts | 274° |
| 2026-05-05 21:02 | 45.52674 | 8.53358 | 14000 ft | 243 kts | 294° |
| 2026-05-05 21:02 | 45.53601 | 8.51655 | 14001 ft | 250 kts | 317° |
| 2026-05-05 21:02 | 45.55006 | 8.50170 | 14003 ft | 253 kts | 320° |
| 2026-05-05 21:02 | 45.56465 | 8.48708 | 14002 ft | 254 kts | 321° |
| 2026-05-05 21:03 | 45.57904 | 8.47277 | 13997 ft | 254 kts | 321° |
| 2026-05-05 21:03 | 45.59353 | 8.45838 | 14003 ft | 254 kts | 322° |
| 2026-05-05 21:03 | 45.60984 | 8.44831 | 13995 ft | 260 kts | 349° |
| 2026-05-05 21:03 | 45.62788 | 8.45063 | 14001 ft | 266 kts | 20° |
| 2026-05-05 21:04 | 45.64293 | 8.46580 | 14006 ft | 268 kts | 53° |
| 2026-05-05 21:04 | 45.65055 | 8.48968 | 14008 ft | 265 kts | 85° |
| 2026-05-05 21:04 | 45.64901 | 8.51533 | 14007 ft | 258 kts | 115° |
| 2026-05-05 21:04 | 45.63939 | 8.53617 | 14003 ft | 249 kts | 144° |
| 2026-05-05 21:05 | 45.62559 | 8.55104 | 14002 ft | 249 kts | 149° |
| 2026-05-05 21:05 | 45.61168 | 8.56508 | 14003 ft | 249 kts | 149° |
| 2026-05-05 21:05 | 45.59739 | 8.57934 | 14001 ft | 249 kts | 149° |
| 2026-05-05 21:05 | 45.58344 | 8.59329 | 13996 ft | 249 kts | 149° |
| 2026-05-05 21:06 | 45.56846 | 8.60475 | 13995 ft | 242 kts | 170° |
| 2026-05-05 21:06 | 45.55198 | 8.60574 | 13996 ft | 236 kts | 195° |
| 2026-05-05 21:06 | 45.53728 | 8.59633 | 13992 ft | 233 kts | 220° |
| 2026-05-05 21:06 | 45.52698 | 8.57874 | 14008 ft | 233 kts | 244° |
| 2026-05-05 21:07 | 45.52310 | 8.55640 | 14008 ft | 236 kts | 268° |
| 2026-05-05 21:07 | 45.52666 | 8.53343 | 14002 ft | 243 kts | 294° |
| 2026-05-05 21:07 | 45.53750 | 8.51466 | 13997 ft | 251 kts | 318° |
| 2026-05-05 21:07 | 45.55162 | 8.49981 | 14004 ft | 253 kts | 320° |
| 2026-05-05 21:08 | 45.56606 | 8.48530 | 13998 ft | 254 kts | 321° |
| 2026-05-05 21:08 | 45.58059 | 8.47090 | 14007 ft | 254 kts | 321° |
| 2026-05-05 21:08 | 45.59477 | 8.45689 | 13998 ft | 255 kts | 323° |
| 2026-05-05 21:08 | 45.61158 | 8.44777 | 14001 ft | 261 kts | 352° |
| 2026-05-05 21:09 | 45.62935 | 8.45138 | 14001 ft | 267 kts | 23° |
| 2026-05-05 21:09 | 45.64434 | 8.46824 | 14002 ft | 268 kts | 57° |
| 2026-05-05 21:09 | 45.65090 | 8.49164 | 13999 ft | 264 kts | 87° |
| 2026-05-05 21:09 | 45.64873 | 8.51711 | 14002 ft | 257 kts | 117° |
| 2026-05-05 21:10 | 45.63849 | 8.53752 | 14003 ft | 249 kts | 145° |
| 2026-05-05 21:10 | 45.62471 | 8.55217 | 13998 ft | 249 kts | 149° |
| 2026-05-05 21:10 | 45.61059 | 8.56638 | 14008 ft | 249 kts | 149° |
| 2026-05-05 21:10 | 45.59635 | 8.58052 | 14003 ft | 249 kts | 149° |
| 2026-05-05 21:11 | 45.58212 | 8.59468 | 14005 ft | 249 kts | 149° |
| 2026-05-05 21:11 | 45.56679 | 8.60528 | 13990 ft | 241 kts | 173° |
| 2026-05-05 21:11 | 45.55039 | 8.60512 | 13996 ft | 234 kts | 197° |
| 2026-05-05 21:11 | 45.53612 | 8.59516 | 13698 ft | 230 kts | 222° |
| 2026-05-05 21:12 | 45.52646 | 8.57720 | 13282 ft | 233 kts | 246° |
| 2026-05-05 21:12 | 45.52326 | 8.55456 | 12871 ft | 238 kts | 271° |
| 2026-05-05 21:12 | 45.52528 | 8.53909 | 12606 ft | 243 kts | 288° |
| 2026-05-05 21:12 | 45.53434 | 8.51915 | 12213 ft | 251 kts | 315° |
| 2026-05-05 21:13 | 45.54788 | 8.50416 | 11810 ft | 255 kts | 321° |
| 2026-05-05 21:13 | 45.56275 | 8.48903 | 11413 ft | 257 kts | 322° |
| 2026-05-05 21:13 | 45.57743 | 8.47437 | 11077 ft | 257 kts | 322° |
| 2026-05-05 21:13 | 45.59194 | 8.45994 | 10848 ft | 252 kts | 323° |
| 2026-05-05 21:14 | 45.60762 | 8.44905 | 10568 ft | 253 kts | 347° |
| 2026-05-05 21:14 | 45.62510 | 8.44968 | 10264 ft | 254 kts | 17° |
| 2026-05-05 21:14 | 45.64011 | 8.46206 | 10022 ft | 252 kts | 47° |
| 2026-05-05 21:14 | 45.64912 | 8.48281 | 9997 ft | 250 kts | 75° |
| 2026-05-05 21:15 | 45.65041 | 8.50751 | 10001 ft | 246 kts | 104° |
| 2026-05-05 21:15 | 45.64387 | 8.52926 | 10001 ft | 241 kts | 131° |
| 2026-05-05 21:15 | 45.63157 | 8.54500 | 10009 ft | 239 kts | 146° |
| 2026-05-05 21:15 | 45.61804 | 8.55883 | 10003 ft | 239 kts | 147° |
| 2026-05-05 21:16 | 45.60443 | 8.57242 | 10005 ft | 239 kts | 148° |
| 2026-05-05 21:16 | 45.59113 | 8.58568 | 9770 ft | 236 kts | 147° |
| 2026-05-05 21:16 | 45.57754 | 8.59900 | 9443 ft | 235 kts | 152° |
| 2026-05-05 21:16 | 45.56226 | 8.60561 | 9128 ft | 229 kts | 181° |
| 2026-05-05 21:17 | 45.54653 | 8.60529 | 8781 ft | 229 kts | 178° |
| 2026-05-05 21:17 | 45.53047 | 8.60854 | 8262 ft | 237 kts | 170° |
| 2026-05-05 21:17 | 45.51428 | 8.61367 | 7902 ft | 238 kts | 168° |
| 2026-05-05 21:17 | 45.49849 | 8.61898 | 7769 ft | 228 kts | 168° |
| 2026-05-05 21:18 | 45.48328 | 8.62389 | 7638 ft | 219 kts | 169° |
| 2026-05-05 21:18 | 45.46856 | 8.62837 | 7411 ft | 215 kts | 169° |
| 2026-05-05 21:18 | 45.45400 | 8.63260 | 7108 ft | 211 kts | 170° |
| 2026-05-05 21:18 | 45.43959 | 8.63663 | 6655 ft | 212 kts | 170° |
| 2026-05-05 21:19 | 45.42516 | 8.64057 | 6229 ft | 210 kts | 170° |
| 2026-05-05 21:19 | 45.41080 | 8.64444 | 5793 ft | 209 kts | 170° |
| 2026-05-05 21:19 | 45.39687 | 8.64817 | 5370 ft | 208 kts | 170° |
| 2026-05-05 21:19 | 45.38282 | 8.65192 | 5030 ft | 205 kts | 170° |
| 2026-05-05 21:20 | 45.36877 | 8.65567 | 5007 ft | 207 kts | 170° |
| 2026-05-05 21:20 | 45.35458 | 8.65943 | 4991 ft | 206 kts | 170° |
| 2026-05-05 21:20 | 45.34062 | 8.66313 | 4601 ft | 204 kts | 170° |
| 2026-05-05 21:20 | 45.32658 | 8.66695 | 4124 ft | 206 kts | 169° |
| 2026-05-05 21:21 | 45.31262 | 8.67081 | 4008 ft | 205 kts | 169° |
| 2026-05-05 21:21 | 45.29860 | 8.67471 | 4007 ft | 206 kts | 169° |
| 2026-05-05 21:21 | 45.28459 | 8.67859 | 4007 ft | 205 kts | 169° |
| 2026-05-05 21:21 | 45.27056 | 8.68250 | 4009 ft | 206 kts | 169° |
| 2026-05-05 21:22 | 45.25665 | 8.68634 | 4011 ft | 206 kts | 169° |
| 2026-05-05 21:22 | 45.24257 | 8.69021 | 4007 ft | 206 kts | 169° |
| 2026-05-05 21:22 | 45.22834 | 8.69411 | 4007 ft | 205 kts | 169° |
| 2026-05-05 21:22 | 45.21452 | 8.69789 | 4005 ft | 205 kts | 169° |
| 2026-05-05 21:23 | 45.20048 | 8.70172 | 4005 ft | 205 kts | 169° |
| 2026-05-05 21:23 | 45.18630 | 8.70558 | 3983 ft | 205 kts | 169° |
| 2026-05-05 21:23 | 45.17228 | 8.70942 | 3984 ft | 205 kts | 169° |
| 2026-05-05 21:23 | 45.15827 | 8.71326 | 3982 ft | 205 kts | 169° |
| 2026-05-05 21:24 | 45.14432 | 8.71711 | 3983 ft | 205 kts | 169° |
| 2026-05-05 21:24 | 45.13051 | 8.72094 | 3984 ft | 205 kts | 169° |
| 2026-05-05 21:24 | 45.11647 | 8.72482 | 3985 ft | 205 kts | 169° |
| 2026-05-05 21:24 | 45.10240 | 8.72866 | 3981 ft | 206 kts | 169° |
| 2026-05-05 21:25 | 45.08835 | 8.73248 | 3981 ft | 205 kts | 169° |
| 2026-05-05 21:25 | 45.07431 | 8.73632 | 3983 ft | 205 kts | 169° |
| 2026-05-05 21:25 | 45.06484 | 8.73891 | 3982 ft | 205 kts | 169° |
| 2026-05-05 21:25 | 45.05091 | 8.74338 | 3979 ft | 206 kts | 160° |
| 2026-05-05 21:26 | 45.03931 | 8.75496 | 3981 ft | 208 kts | 131° |
| 2026-05-05 21:26 | 45.03348 | 8.77359 | 3982 ft | 212 kts | 99° |
| 2026-05-05 21:26 | 45.03557 | 8.79387 | 3981 ft | 216 kts | 67° |
| 2026-05-05 21:26 | 45.04526 | 8.80988 | 3982 ft | 219 kts | 33° |
| 2026-05-05 21:27 | 45.05968 | 8.81603 | 3984 ft | 219 kts | 0° |
| 2026-05-05 21:27 | 45.07491 | 8.81503 | 3982 ft | 219 kts | 356° |
| 2026-05-05 21:27 | 45.09003 | 8.81378 | 3982 ft | 219 kts | 356° |
| 2026-05-05 21:27 | 45.10528 | 8.81255 | 3981 ft | 219 kts | 356° |
| 2026-05-05 21:28 | 45.12048 | 8.81135 | 3984 ft | 219 kts | 356° |
| 2026-05-05 21:28 | 45.13570 | 8.81016 | 3983 ft | 219 kts | 356° |
| 2026-05-05 21:28 | 45.15093 | 8.80899 | 3984 ft | 219 kts | 356° |
| 2026-05-05 21:28 | 45.16603 | 8.80785 | 3982 ft | 219 kts | 356° |
| 2026-05-05 21:29 | 45.18122 | 8.80672 | 3983 ft | 219 kts | 356° |
| 2026-05-05 21:29 | 45.19635 | 8.80557 | 3983 ft | 219 kts | 356° |
| 2026-05-05 21:29 | 45.21158 | 8.80438 | 3984 ft | 219 kts | 356° |
| 2026-05-05 21:29 | 45.22678 | 8.80318 | 3984 ft | 219 kts | 356° |
| 2026-05-05 21:30 | 45.24170 | 8.80606 | 3995 ft | 218 kts | 24° |
| 2026-05-05 21:30 | 45.25494 | 8.81645 | 4007 ft | 217 kts | 33° |
| 2026-05-05 21:30 | 45.26823 | 8.82651 | 4006 ft | 217 kts | 18° |
| 2026-05-05 21:30 | 45.28275 | 8.82866 | 4001 ft | 202 kts | 353° |
| 2026-05-05 21:31 | 45.29597 | 8.82521 | 4001 ft | 188 kts | 349° |
| 2026-05-05 21:31 | 45.30879 | 8.82173 | 4007 ft | 187 kts | 349° |
| 2026-05-05 21:31 | 45.32152 | 8.81826 | 4011 ft | 186 kts | 349° |
| 2026-05-05 21:31 | 45.33421 | 8.81479 | 4011 ft | 186 kts | 348° |
| 2026-05-05 21:32 | 45.34692 | 8.81132 | 4008 ft | 186 kts | 348° |
| 2026-05-05 21:32 | 45.35966 | 8.80784 | 4009 ft | 186 kts | 349° |
| 2026-05-05 21:32 | 45.37236 | 8.80436 | 4010 ft | 186 kts | 349° |
| 2026-05-05 21:32 | 45.38507 | 8.80089 | 4008 ft | 186 kts | 349° |
| 2026-05-05 21:33 | 45.39779 | 8.79741 | 4012 ft | 186 kts | 349° |
| 2026-05-05 21:33 | 45.41054 | 8.79391 | 4007 ft | 186 kts | 349° |
| 2026-05-05 21:33 | 45.42326 | 8.79043 | 4009 ft | 186 kts | 349° |
| 2026-05-05 21:33 | 45.43599 | 8.78694 | 4008 ft | 186 kts | 349° |
| 2026-05-05 21:34 | 45.44872 | 8.78345 | 3975 ft | 186 kts | 349° |
| 2026-05-05 21:34 | 45.46146 | 8.77996 | 3801 ft | 186 kts | 349° |
| 2026-05-05 21:34 | 45.47412 | 8.77648 | 3575 ft | 185 kts | 349° |
| 2026-05-05 21:34 | 45.48659 | 8.77306 | 3334 ft | 183 kts | 349° |
| 2026-05-05 21:35 | 45.49886 | 8.76968 | 3099 ft | 176 kts | 350° |
| 2026-05-05 21:35 | 45.51045 | 8.76650 | 2876 ft | 165 kts | 350° |
| 2026-05-05 21:35 | 45.52148 | 8.76346 | 2643 ft | 157 kts | 350° |
| 2026-05-05 21:35 | 45.53176 | 8.76063 | 2443 ft | 146 kts | 350° |
| 2026-05-05 21:36 | 45.54172 | 8.75790 | 2248 ft | 142 kts | 351° |
| 2026-05-05 21:36 | 45.55124 | 8.75527 | 2062 ft | 140 kts | 351° |
| 2026-05-05 21:36 | 45.56077 | 8.75265 | 1873 ft | 138 kts | 351° |
| 2026-05-05 21:36 | 45.57024 | 8.75005 | 1684 ft | 138 kts | 351° |
| 2026-05-05 21:37 | 45.57960 | 8.74747 | 1485 ft | 135 kts | 351° |
| 2026-05-05 21:37 | 45.58870 | 8.74496 | 1299 ft | 132 kts | 349° |
| 2026-05-05 21:37 | 45.59756 | 8.74251 | 1111 ft | 129 kts | 349° |
| 2026-05-05 21:37 | 45.60640 | 8.74008 | 951 ft | 131 kts | 349° |
| 2026-05-05 21:38 | 45.61632 | 8.73749 | 1433 ft | 156 kts | 352° |
| 2026-05-05 21:38 | 45.62806 | 8.73521 | 1952 ft | 181 kts | 354° |
| 2026-05-05 21:38 | 45.64092 | 8.73217 | 2250 ft | 194 kts | 350° |
| 2026-05-05 21:38 | 45.65385 | 8.73258 | 2686 ft | 177 kts | 31° |
| 2026-05-05 21:39 | 45.66112 | 8.74462 | 3323 ft | 150 kts | 68° |
| 2026-05-05 21:39 | 45.66637 | 8.75769 | 3804 ft | 158 kts | 45° |
| 2026-05-05 21:39 | 45.67511 | 8.76777 | 4091 ft | 170 kts | 59° |